sensor_id;sensor_type;location;lat;lon;timestamp;temperature;humidity
67559;DHT22;54388;53.536;49.300;2023-04-24T00:00:43;15.20;34.00
67559;DHT22;54388;53.536;49.300;2023-04-24T00:03:15;15.20;34.00
67559;DHT22;54388;53.536;49.300;2023-04-24T00:05:42;15.20;34.00
67559;DHT22;54388;53.536;49.300;2023-04-24T00:08:08;15.20;34.20
67559;DHT22;54388;53.536;49.300;2023-04-24T00:10:35;15.10;34.10
67559;DHT22;54388;53.536;49.300;2023-04-24T00:13:05;15.10;34.30
67559;DHT22;54388;53.536;49.300;2023-04-24T00:15:33;15.10;34.30
67559;DHT22;54388;53.536;49.300;2023-04-24T00:18:00;15.10;34.30
67559;DHT22;54388;53.536;49.300;2023-04-24T00:20:30;15.10;34.30
67559;DHT22;54388;53.536;49.300;2023-04-24T00:23:00;15.10;34.40
67559;DHT22;54388;53.536;49.300;2023-04-24T00:25:29;15.00;34.40
67559;DHT22;54388;53.536;49.300;2023-04-24T00:27:58;15.00;34.50
67559;DHT22;54388;53.536;49.300;2023-04-24T00:30:24;15.00;34.40
67559;DHT22;54388;53.536;49.300;2023-04-24T00:32:55;15.00;34.60
67559;DHT22;54388;53.536;49.300;2023-04-24T00:35:22;15.00;34.60
67559;DHT22;54388;53.536;49.300;2023-04-24T00:37:49;15.00;34.70
67559;DHT22;54388;53.536;49.300;2023-04-24T00:40:20;14.90;34.70
67559;DHT22;54388;53.536;49.300;2023-04-24T00:42:49;14.90;34.80
67559;DHT22;54388;53.536;49.300;2023-04-24T00:45:18;14.90;34.80
67559;DHT22;54388;53.536;49.300;2023-04-24T00:47:48;14.90;34.90
67559;DHT22;54388;53.536;49.300;2023-04-24T00:50:15;14.90;35.00
67559;DHT22;54388;53.536;49.300;2023-04-24T00:52:44;14.80;35.20
67559;DHT22;54388;53.536;49.300;2023-04-24T00:55:11;14.80;35.30
67559;DHT22;54388;53.536;49.300;2023-04-24T00:57:38;14.80;35.30
67559;DHT22;54388;53.536;49.300;2023-04-24T01:00:05;14.80;35.30
67559;DHT22;54388;53.536;49.300;2023-04-24T01:02:40;14.80;35.40
67559;DHT22;54388;53.536;49.300;2023-04-24T01:05:10;14.80;35.40
67559;DHT22;54388;53.536;49.300;2023-04-24T01:07:39;14.80;35.30
67559;DHT22;54388;53.536;49.300;2023-04-24T01:10:07;14.70;35.40
67559;DHT22;54388;53.536;49.300;2023-04-24T01:12:35;14.70;35.40
67559;DHT22;54388;53.536;49.300;2023-04-24T01:15:01;14.60;35.40
67559;DHT22;54388;53.536;49.300;2023-04-24T01:17:29;14.70;35.50
67559;DHT22;54388;53.536;49.300;2023-04-24T01:19:58;14.70;35.50
67559;DHT22;54388;53.536;49.300;2023-04-24T01:22:28;14.70;35.50
67559;DHT22;54388;53.536;49.300;2023-04-24T01:24:57;14.70;35.60
67559;DHT22;54388;53.536;49.300;2023-04-24T01:27:24;14.70;35.60
67559;DHT22;54388;53.536;49.300;2023-04-24T01:29:53;14.70;35.60
67559;DHT22;54388;53.536;49.300;2023-04-24T01:32:20;14.60;35.80
67559;DHT22;54388;53.536;49.300;2023-04-24T01:34:52;14.60;35.70
67559;DHT22;54388;53.536;49.300;2023-04-24T01:37:21;14.60;35.70
67559;DHT22;54388;53.536;49.300;2023-04-24T01:39:50;14.60;35.70
67559;DHT22;54388;53.536;49.300;2023-04-24T01:42:17;14.60;35.90
67559;DHT22;54388;53.536;49.300;2023-04-24T01:44:46;14.60;36.80
67559;DHT22;54388;53.536;49.300;2023-04-24T01:47:13;14.60;35.90
67559;DHT22;54388;53.536;49.300;2023-04-24T01:49:40;14.50;36.00
67559;DHT22;54388;53.536;49.300;2023-04-24T01:52:09;14.50;36.00
67559;DHT22;54388;53.536;49.300;2023-04-24T01:54:38;14.50;36.00
67559;DHT22;54388;53.536;49.300;2023-04-24T01:57:07;14.60;36.10
67559;DHT22;54388;53.536;49.300;2023-04-24T01:59:34;14.50;36.10
67559;DHT22;54388;53.536;49.300;2023-04-24T02:02:04;14.50;36.10
67559;DHT22;54388;53.536;49.300;2023-04-24T02:04:33;14.50;36.10
67559;DHT22;54388;53.536;49.300;2023-04-24T02:07:00;14.60;36.00
67559;DHT22;54388;53.536;49.300;2023-04-24T02:09:26;14.60;36.00
67559;DHT22;54388;53.536;49.300;2023-04-24T02:11:53;14.60;36.00
67559;DHT22;54388;53.536;49.300;2023-04-24T02:14:19;14.70;35.90
67559;DHT22;54388;53.536;49.300;2023-04-24T02:16:48;14.90;35.90
67559;DHT22;54388;53.536;49.300;2023-04-24T02:19:15;15.00;35.60
67559;DHT22;54388;53.536;49.300;2023-04-24T02:21:41;15.10;35.30
67559;DHT22;54388;53.536;49.300;2023-04-24T02:24:08;15.30;35.10
67559;DHT22;54388;53.536;49.300;2023-04-24T02:26:34;15.50;34.80
67559;DHT22;54388;53.536;49.300;2023-04-24T02:29:01;15.70;34.60
67559;DHT22;54388;53.536;49.300;2023-04-24T02:31:30;15.90;34.30
67559;DHT22;54388;53.536;49.300;2023-04-24T02:33:57;16.10;34.00
67559;DHT22;54388;53.536;49.300;2023-04-24T02:36:23;16.30;33.70
67559;DHT22;54388;53.536;49.300;2023-04-24T02:38:50;16.50;33.50
67559;DHT22;54388;53.536;49.300;2023-04-24T02:41:16;16.70;33.00
67559;DHT22;54388;53.536;49.300;2023-04-24T02:43:43;16.90;32.70
67559;DHT22;54388;53.536;49.300;2023-04-24T02:46:10;17.20;32.30
67559;DHT22;54388;53.536;49.300;2023-04-24T02:48:36;17.50;31.90
67559;DHT22;54388;53.536;49.300;2023-04-24T02:51:03;17.80;31.40
67559;DHT22;54388;53.536;49.300;2023-04-24T02:53:30;18.10;31.00
67559;DHT22;54388;53.536;49.300;2023-04-24T02:55:56;18.30;30.50
67559;DHT22;54388;53.536;49.300;2023-04-24T02:58:26;18.60;30.10
67559;DHT22;54388;53.536;49.300;2023-04-24T03:00:55;18.80;29.80
67559;DHT22;54388;53.536;49.300;2023-04-24T03:03:22;19.10;29.50
67559;DHT22;54388;53.536;49.300;2023-04-24T03:05:50;19.30;29.00
67559;DHT22;54388;53.536;49.300;2023-04-24T03:08:16;19.60;28.90
67559;DHT22;54388;53.536;49.300;2023-04-24T03:10:43;19.80;28.50
67559;DHT22;54388;53.536;49.300;2023-04-24T03:13:10;20.00;28.10
67559;DHT22;54388;53.536;49.300;2023-04-24T03:15:36;20.30;27.80
67559;DHT22;54388;53.536;49.300;2023-04-24T03:18:03;20.60;27.60
67559;DHT22;54388;53.536;49.300;2023-04-24T03:20:32;20.90;27.20
67559;DHT22;54388;53.536;49.300;2023-04-24T03:22:58;21.10;27.70
67559;DHT22;54388;53.536;49.300;2023-04-24T03:25:27;21.40;26.60
67559;DHT22;54388;53.536;49.300;2023-04-24T03:27:56;21.60;26.40
67559;DHT22;54388;53.536;49.300;2023-04-24T03:30:24;21.90;26.10
67559;DHT22;54388;53.536;49.300;2023-04-24T03:32:55;22.10;25.80
67559;DHT22;54388;53.536;49.300;2023-04-24T03:35:25;22.30;25.50
67559;DHT22;54388;53.536;49.300;2023-04-24T03:37:53;22.60;25.30
67559;DHT22;54388;53.536;49.300;2023-04-24T03:40:20;22.80;25.00
67559;DHT22;54388;53.536;49.300;2023-04-24T03:42:51;23.10;24.70
67559;DHT22;54388;53.536;49.300;2023-04-24T03:45:18;23.40;24.30
67559;DHT22;54388;53.536;49.300;2023-04-24T03:47:49;23.60;24.10
67559;DHT22;54388;53.536;49.300;2023-04-24T03:50:16;23.80;23.80
67559;DHT22;54388;53.536;49.300;2023-04-24T03:52:48;24.00;23.60
67559;DHT22;54388;53.536;49.300;2023-04-24T03:55:15;24.20;23.40
67559;DHT22;54388;53.536;49.300;2023-04-24T03:57:42;24.40;23.10
67559;DHT22;54388;53.536;49.300;2023-04-24T04:00:14;24.50;22.80
67559;DHT22;54388;53.536;49.300;2023-04-24T04:02:41;24.80;22.70
67559;DHT22;54388;53.536;49.300;2023-04-24T04:05:10;24.90;22.40
67559;DHT22;54388;53.536;49.300;2023-04-24T04:07:39;25.00;22.20
67559;DHT22;54388;53.536;49.300;2023-04-24T04:10:09;25.10;22.10
67559;DHT22;54388;53.536;49.300;2023-04-24T04:12:41;25.20;22.00
67559;DHT22;54388;53.536;49.300;2023-04-24T04:15:13;25.40;22.00
67559;DHT22;54388;53.536;49.300;2023-04-24T04:17:40;25.50;21.70
67559;DHT22;54388;53.536;49.300;2023-04-24T04:20:07;25.60;21.70
67559;DHT22;54388;53.536;49.300;2023-04-24T04:22:36;25.80;21.70
67559;DHT22;54388;53.536;49.300;2023-04-24T04:25:06;26.00;21.50
67559;DHT22;54388;53.536;49.300;2023-04-24T04:27:36;26.20;21.30
67559;DHT22;54388;53.536;49.300;2023-04-24T04:30:03;26.40;21.10
67559;DHT22;54388;53.536;49.300;2023-04-24T04:32:32;26.60;21.80
67559;DHT22;54388;53.536;49.300;2023-04-24T04:35:00;26.70;20.80
67559;DHT22;54388;53.536;49.300;2023-04-24T04:37:31;26.90;20.70
67559;DHT22;54388;53.536;49.300;2023-04-24T04:39:58;27.10;20.60
67559;DHT22;54388;53.536;49.300;2023-04-24T04:42:26;27.30;20.90
67559;DHT22;54388;53.536;49.300;2023-04-24T04:44:56;27.40;20.40
67559;DHT22;54388;53.536;49.300;2023-04-24T04:47:23;27.50;20.40
67559;DHT22;54388;53.536;49.300;2023-04-24T04:49:55;27.60;20.30
67559;DHT22;54388;53.536;49.300;2023-04-24T04:52:22;27.80;20.20
67559;DHT22;54388;53.536;49.300;2023-04-24T04:54:57;27.90;20.20
67559;DHT22;54388;53.536;49.300;2023-04-24T04:57:26;28.00;20.00
67559;DHT22;54388;53.536;49.300;2023-04-24T04:59:53;28.20;20.00
67559;DHT22;54388;53.536;49.300;2023-04-24T05:02:19;28.40;19.80
67559;DHT22;54388;53.536;49.300;2023-04-24T05:04:46;28.60;19.80
67559;DHT22;54388;53.536;49.300;2023-04-24T05:07:16;28.60;19.70
67559;DHT22;54388;53.536;49.300;2023-04-24T05:09:47;28.60;19.60
67559;DHT22;54388;53.536;49.300;2023-04-24T05:12:16;28.70;19.60
67559;DHT22;54388;53.536;49.300;2023-04-24T05:14:45;28.80;19.70
67559;DHT22;54388;53.536;49.300;2023-04-24T05:17:11;28.80;19.70
67559;DHT22;54388;53.536;49.300;2023-04-24T05:19:38;28.80;19.60
67559;DHT22;54388;53.536;49.300;2023-04-24T05:22:07;28.90;19.50
67559;DHT22;54388;53.536;49.300;2023-04-24T05:24:38;28.90;19.50
67559;DHT22;54388;53.536;49.300;2023-04-24T05:27:04;28.90;19.50
67559;DHT22;54388;53.536;49.300;2023-04-24T05:29:35;28.90;19.40
67559;DHT22;54388;53.536;49.300;2023-04-24T05:32:02;28.90;19.40
67559;DHT22;54388;53.536;49.300;2023-04-24T05:34:31;29.00;19.40
67559;DHT22;54388;53.536;49.300;2023-04-24T05:36:57;29.00;19.40
67559;DHT22;54388;53.536;49.300;2023-04-24T05:39:24;29.10;19.30
67559;DHT22;54388;53.536;49.300;2023-04-24T05:41:51;29.00;19.20
67559;DHT22;54388;53.536;49.300;2023-04-24T05:44:18;29.00;19.30
67559;DHT22;54388;53.536;49.300;2023-04-24T05:46:47;29.00;19.30
67559;DHT22;54388;53.536;49.300;2023-04-24T05:49:14;29.20;19.30
67559;DHT22;54388;53.536;49.300;2023-04-24T05:51:41;29.30;19.30
67559;DHT22;54388;53.536;49.300;2023-04-24T05:54:08;29.40;19.20
67559;DHT22;54388;53.536;49.300;2023-04-24T05:56:37;29.50;19.10
67559;DHT22;54388;53.536;49.300;2023-04-24T05:59:04;29.70;19.00
67559;DHT22;54388;53.536;49.300;2023-04-24T06:01:33;29.90;18.70
67559;DHT22;54388;53.536;49.300;2023-04-24T06:03:59;30.20;18.80
67559;DHT22;54388;53.536;49.300;2023-04-24T06:06:26;30.30;18.60
67559;DHT22;54388;53.536;49.300;2023-04-24T06:08:53;30.50;18.60
67559;DHT22;54388;53.536;49.300;2023-04-24T06:11:25;30.60;18.40
67559;DHT22;54388;53.536;49.300;2023-04-24T06:13:51;30.70;18.30
67559;DHT22;54388;53.536;49.300;2023-04-24T06:16:22;30.90;18.20
67559;DHT22;54388;53.536;49.300;2023-04-24T06:18:49;31.00;18.10
67559;DHT22;54388;53.536;49.300;2023-04-24T06:21:16;31.10;18.00
67559;DHT22;54388;53.536;49.300;2023-04-24T06:23:43;31.20;17.90
67559;DHT22;54388;53.536;49.300;2023-04-24T06:26:15;31.20;17.80
67559;DHT22;54388;53.536;49.300;2023-04-24T06:28:42;31.30;17.80
67559;DHT22;54388;53.536;49.300;2023-04-24T06:31:13;31.50;17.70
67559;DHT22;54388;53.536;49.300;2023-04-24T06:33:40;31.60;17.60
67559;DHT22;54388;53.536;49.300;2023-04-24T06:36:09;31.80;17.40
67559;DHT22;54388;53.536;49.300;2023-04-24T06:38:36;32.00;17.30
67559;DHT22;54388;53.536;49.300;2023-04-24T06:41:09;32.20;17.20
67559;DHT22;54388;53.536;49.300;2023-04-24T06:43:38;32.40;17.10
67559;DHT22;54388;53.536;49.300;2023-04-24T06:46:07;32.50;17.00
67559;DHT22;54388;53.536;49.300;2023-04-24T06:48:36;32.60;16.90
67559;DHT22;54388;53.536;49.300;2023-04-24T06:51:06;32.70;16.80
67559;DHT22;54388;53.536;49.300;2023-04-24T06:53:33;32.80;16.80
67559;DHT22;54388;53.536;49.300;2023-04-24T06:56:00;33.00;16.70
67559;DHT22;54388;53.536;49.300;2023-04-24T06:58:29;32.90;16.60
67559;DHT22;54388;53.536;49.300;2023-04-24T07:01:01;33.00;16.50
67559;DHT22;54388;53.536;49.300;2023-04-24T07:03:28;33.10;16.40
67559;DHT22;54388;53.536;49.300;2023-04-24T07:05:55;33.10;16.40
67559;DHT22;54388;53.536;49.300;2023-04-24T07:08:26;33.20;16.30
67559;DHT22;54388;53.536;49.300;2023-04-24T07:10:56;33.20;16.40
67559;DHT22;54388;53.536;49.300;2023-04-24T07:13:27;33.30;16.30
67559;DHT22;54388;53.536;49.300;2023-04-24T07:15:56;33.50;16.10
67559;DHT22;54388;53.536;49.300;2023-04-24T07:18:26;33.60;16.10
67559;DHT22;54388;53.536;49.300;2023-04-24T07:20:57;33.80;15.90
67559;DHT22;54388;53.536;49.300;2023-04-24T07:23:24;34.00;15.90
67559;DHT22;54388;53.536;49.300;2023-04-24T07:25:51;34.20;15.80
67559;DHT22;54388;53.536;49.300;2023-04-24T07:28:18;34.40;15.50
67559;DHT22;54388;53.536;49.300;2023-04-24T07:30:45;34.70;15.50
67559;DHT22;54388;53.536;49.300;2023-04-24T07:33:14;35.00;15.20
67559;DHT22;54388;53.536;49.300;2023-04-24T07:35:44;35.30;14.80
67559;DHT22;54388;53.536;49.300;2023-04-24T07:38:16;35.70;14.80
67559;DHT22;54388;53.536;49.300;2023-04-24T07:40:46;35.90;14.50
67559;DHT22;54388;53.536;49.300;2023-04-24T07:43:15;36.20;14.40
67559;DHT22;54388;53.536;49.300;2023-04-24T07:45:42;36.40;14.30
67559;DHT22;54388;53.536;49.300;2023-04-24T07:48:12;36.70;14.40
67559;DHT22;54388;53.536;49.300;2023-04-24T07:50:44;36.90;14.20
67559;DHT22;54388;53.536;49.300;2023-04-24T07:53:25;37.10;14.20
67559;DHT22;54388;53.536;49.300;2023-04-24T07:55:55;37.30;14.10
67559;DHT22;54388;53.536;49.300;2023-04-24T07:58:22;37.40;13.90
67559;DHT22;54388;53.536;49.300;2023-04-24T08:00:52;37.50;13.80
67559;DHT22;54388;53.536;49.300;2023-04-24T08:03:23;37.60;13.70
67559;DHT22;54388;53.536;49.300;2023-04-24T08:05:51;37.70;13.50
67559;DHT22;54388;53.536;49.300;2023-04-24T08:08:21;37.80;13.40
67559;DHT22;54388;53.536;49.300;2023-04-24T08:10:51;37.80;13.40
67559;DHT22;54388;53.536;49.300;2023-04-24T08:13:18;37.90;13.40
67559;DHT22;54388;53.536;49.300;2023-04-24T08:15:44;37.90;13.20
67559;DHT22;54388;53.536;49.300;2023-04-24T08:18:12;38.00;13.10
67559;DHT22;54388;53.536;49.300;2023-04-24T08:20:42;38.00;13.00
67559;DHT22;54388;53.536;49.300;2023-04-24T08:23:12;38.00;12.70
67559;DHT22;54388;53.536;49.300;2023-04-24T08:25:39;38.10;12.70
67559;DHT22;54388;53.536;49.300;2023-04-24T08:28:08;38.10;12.80
67559;DHT22;54388;53.536;49.300;2023-04-24T08:30:40;38.20;12.80
67559;DHT22;54388;53.536;49.300;2023-04-24T08:33:10;38.20;12.50
67559;DHT22;54388;53.536;49.300;2023-04-24T08:35:37;38.20;12.40
67559;DHT22;54388;53.536;49.300;2023-04-24T08:38:04;38.20;12.20
67559;DHT22;54388;53.536;49.300;2023-04-24T08:40:34;38.20;12.30
67559;DHT22;54388;53.536;49.300;2023-04-24T08:43:01;38.10;12.20
67559;DHT22;54388;53.536;49.300;2023-04-24T08:45:31;38.20;12.00
67559;DHT22;54388;53.536;49.300;2023-04-24T08:47:59;38.20;11.90
67559;DHT22;54388;53.536;49.300;2023-04-24T08:50:27;38.20;11.90
67559;DHT22;54388;53.536;49.300;2023-04-24T08:52:57;38.10;11.90
67559;DHT22;54388;53.536;49.300;2023-04-24T08:55:27;38.10;11.90
67559;DHT22;54388;53.536;49.300;2023-04-24T08:57:59;38.20;12.80
67559;DHT22;54388;53.536;49.300;2023-04-24T09:00:26;38.20;11.90
67559;DHT22;54388;53.536;49.300;2023-04-24T09:02:56;38.20;12.00
67559;DHT22;54388;53.536;49.300;2023-04-24T09:05:26;38.30;11.80
67559;DHT22;54388;53.536;49.300;2023-04-24T09:07:55;38.20;11.60
67559;DHT22;54388;53.536;49.300;2023-04-24T09:10:24;38.20;11.70
67559;DHT22;54388;53.536;49.300;2023-04-24T09:12:52;38.20;11.20
67559;DHT22;54388;53.536;49.300;2023-04-24T09:15:19;38.10;11.10
67559;DHT22;54388;53.536;49.300;2023-04-24T09:17:47;38.00;11.10
67559;DHT22;54388;53.536;49.300;2023-04-24T09:20:14;38.10;11.20
67559;DHT22;54388;53.536;49.300;2023-04-24T09:22:45;38.10;11.20
67559;DHT22;54388;53.536;49.300;2023-04-24T09:25:12;38.00;11.20
67559;DHT22;54388;53.536;49.300;2023-04-24T09:27:43;38.00;11.30
67559;DHT22;54388;53.536;49.300;2023-04-24T09:30:11;37.90;11.30
67559;DHT22;54388;53.536;49.300;2023-04-24T09:32:41;37.90;11.40
67559;DHT22;54388;53.536;49.300;2023-04-24T09:35:11;37.90;11.30
67559;DHT22;54388;53.536;49.300;2023-04-24T09:37:44;37.90;11.40
67559;DHT22;54388;53.536;49.300;2023-04-24T09:40:22;37.90;11.50
67559;DHT22;54388;53.536;49.300;2023-04-24T09:43:00;37.90;11.70
67559;DHT22;54388;53.536;49.300;2023-04-24T09:45:38;37.80;11.50
67559;DHT22;54388;53.536;49.300;2023-04-24T09:48:09;37.80;11.60
67559;DHT22;54388;53.536;49.300;2023-04-24T09:50:38;37.80;11.60
67559;DHT22;54388;53.536;49.300;2023-04-24T09:53:06;37.80;11.60
67559;DHT22;54388;53.536;49.300;2023-04-24T09:55:45;37.70;11.50
67559;DHT22;54388;53.536;49.300;2023-04-24T09:58:16;37.60;11.50
67559;DHT22;54388;53.536;49.300;2023-04-24T10:00:46;37.40;11.40
67559;DHT22;54388;53.536;49.300;2023-04-24T10:03:14;37.20;11.50
67559;DHT22;54388;53.536;49.300;2023-04-24T10:05:46;37.00;11.70
67559;DHT22;54388;53.536;49.300;2023-04-24T10:08:15;36.80;11.80
67559;DHT22;54388;53.536;49.300;2023-04-24T10:10:44;36.80;11.90
67559;DHT22;54388;53.536;49.300;2023-04-24T10:13:13;36.70;11.90
67559;DHT22;54388;53.536;49.300;2023-04-24T10:15:41;36.50;11.80
67559;DHT22;54388;53.536;49.300;2023-04-24T10:18:09;36.40;11.70
67559;DHT22;54388;53.536;49.300;2023-04-24T10:20:38;36.20;11.90
67559;DHT22;54388;53.536;49.300;2023-04-24T10:23:09;36.10;12.10
67559;DHT22;54388;53.536;49.300;2023-04-24T10:25:37;36.00;12.30
67559;DHT22;54388;53.536;49.300;2023-04-24T10:28:03;36.00;12.20
67559;DHT22;54388;53.536;49.300;2023-04-24T10:30:33;36.00;12.30
67559;DHT22;54388;53.536;49.300;2023-04-24T10:33:07;36.00;12.40
67559;DHT22;54388;53.536;49.300;2023-04-24T10:35:38;36.00;12.30
67559;DHT22;54388;53.536;49.300;2023-04-24T10:38:09;35.90;12.30
67559;DHT22;54388;53.536;49.300;2023-04-24T10:40:37;36.00;12.40
67559;DHT22;54388;53.536;49.300;2023-04-24T10:43:10;36.00;12.30
67559;DHT22;54388;53.536;49.300;2023-04-24T10:45:40;36.00;12.30
67559;DHT22;54388;53.536;49.300;2023-04-24T10:48:08;36.00;12.20
67559;DHT22;54388;53.536;49.300;2023-04-24T10:53:21;36.00;12.30
67559;DHT22;54388;53.536;49.300;2023-04-24T10:56:05;36.00;12.30
67559;DHT22;54388;53.536;49.300;2023-04-24T10:58:42;36.10;12.30
67559;DHT22;54388;53.536;49.300;2023-04-24T11:01:31;36.20;12.20
67559;DHT22;54388;53.536;49.300;2023-04-24T11:04:02;36.30;12.10
67559;DHT22;54388;53.536;49.300;2023-04-24T11:06:35;36.40;12.20
67559;DHT22;54388;53.536;49.300;2023-04-24T11:09:08;36.40;12.10
67559;DHT22;54388;53.536;49.300;2023-04-24T11:11:45;36.40;11.90
67559;DHT22;54388;53.536;49.300;2023-04-24T11:14:15;36.40;11.90
67559;DHT22;54388;53.536;49.300;2023-04-24T11:16:45;36.50;12.00
67559;DHT22;54388;53.536;49.300;2023-04-24T11:21:47;36.40;11.90
67559;DHT22;54388;53.536;49.300;2023-04-24T11:27:17;36.00;11.90
67559;DHT22;54388;53.536;49.300;2023-04-24T11:32:40;35.70;12.20
67559;DHT22;54388;53.536;49.300;2023-04-24T11:35:21;35.60;12.30
67559;DHT22;54388;53.536;49.300;2023-04-24T11:37:55;35.50;12.40
67559;DHT22;54388;53.536;49.300;2023-04-24T11:40:27;35.50;12.40
67559;DHT22;54388;53.536;49.300;2023-04-24T11:42:59;35.50;12.40
67559;DHT22;54388;53.536;49.300;2023-04-24T11:45:31;35.60;12.60
67559;DHT22;54388;53.536;49.300;2023-04-24T11:48:00;35.70;12.50
67559;DHT22;54388;53.536;49.300;2023-04-24T11:50:34;35.90;12.30
67559;DHT22;54388;53.536;49.300;2023-04-24T11:53:05;36.20;12.30
67559;DHT22;54388;53.536;49.300;2023-04-24T11:55:35;36.50;12.00
67559;DHT22;54388;53.536;49.300;2023-04-24T11:58:05;36.70;11.80
67559;DHT22;54388;53.536;49.300;2023-04-24T12:00:34;37.00;11.90
67559;DHT22;54388;53.536;49.300;2023-04-24T12:03:11;37.30;11.80
67559;DHT22;54388;53.536;49.300;2023-04-24T12:05:39;37.70;11.60
67559;DHT22;54388;53.536;49.300;2023-04-24T12:08:08;37.90;11.50
67559;DHT22;54388;53.536;49.300;2023-04-24T12:10:35;38.10;11.40
67559;DHT22;54388;53.536;49.300;2023-04-24T12:13:04;38.30;11.30
67559;DHT22;54388;53.536;49.300;2023-04-24T12:15:34;38.50;11.20
67559;DHT22;54388;53.536;49.300;2023-04-24T12:18:01;38.70;11.30
67559;DHT22;54388;53.536;49.300;2023-04-24T12:20:30;38.80;11.20
67559;DHT22;54388;53.536;49.300;2023-04-24T12:23:01;39.00;11.10
67559;DHT22;54388;53.536;49.300;2023-04-24T12:30:33;39.50;10.80
67559;DHT22;54388;53.536;49.300;2023-04-24T12:33:05;39.60;10.80
67559;DHT22;54388;53.536;49.300;2023-04-24T12:35:33;39.80;10.70
67559;DHT22;54388;53.536;49.300;2023-04-24T12:38:12;39.70;10.60
67559;DHT22;54388;53.536;49.300;2023-04-24T12:40:43;39.70;10.60
67559;DHT22;54388;53.536;49.300;2023-04-24T12:43:17;39.60;10.50
67559;DHT22;54388;53.536;49.300;2023-04-24T12:45:45;39.50;10.70
67559;DHT22;54388;53.536;49.300;2023-04-24T12:48:14;39.40;10.70
67559;DHT22;54388;53.536;49.300;2023-04-24T12:50:41;39.20;10.80
67559;DHT22;54388;53.536;49.300;2023-04-24T12:53:09;39.10;10.80
67559;DHT22;54388;53.536;49.300;2023-04-24T12:55:37;38.90;10.90
67559;DHT22;54388;53.536;49.300;2023-04-24T12:58:04;38.70;10.90
67559;DHT22;54388;53.536;49.300;2023-04-24T13:00:34;38.60;10.90
67559;DHT22;54388;53.536;49.300;2023-04-24T13:03:01;38.50;10.80
67559;DHT22;54388;53.536;49.300;2023-04-24T13:05:28;38.40;11.00
67559;DHT22;54388;53.536;49.300;2023-04-24T13:07:54;38.20;10.90
67559;DHT22;54388;53.536;49.300;2023-04-24T13:10:21;38.10;11.00
67559;DHT22;54388;53.536;49.300;2023-04-24T13:12:50;38.00;11.00
67559;DHT22;54388;53.536;49.300;2023-04-24T13:15:17;37.90;11.10
67559;DHT22;54388;53.536;49.300;2023-04-24T13:17:47;37.80;11.20
67559;DHT22;54388;53.536;49.300;2023-04-24T13:20:16;37.80;11.10
67559;DHT22;54388;53.536;49.300;2023-04-24T13:22:46;37.80;11.00
67559;DHT22;54388;53.536;49.300;2023-04-24T13:25:13;37.80;11.10
67559;DHT22;54388;53.536;49.300;2023-04-24T13:27:45;37.80;11.10
67559;DHT22;54388;53.536;49.300;2023-04-24T13:30:13;37.70;11.10
67559;DHT22;54388;53.536;49.300;2023-04-24T13:32:42;37.70;11.00
67559;DHT22;54388;53.536;49.300;2023-04-24T13:35:11;37.70;11.00
67559;DHT22;54388;53.536;49.300;2023-04-24T13:37:38;37.70;11.00
67559;DHT22;54388;53.536;49.300;2023-04-24T13:40:05;37.70;11.00
67559;DHT22;54388;53.536;49.300;2023-04-24T13:42:58;37.70;11.00
67559;DHT22;54388;53.536;49.300;2023-04-24T13:45:25;37.60;11.00
67559;DHT22;54388;53.536;49.300;2023-04-24T13:47:52;37.50;11.10
67559;DHT22;54388;53.536;49.300;2023-04-24T13:50:22;37.40;11.10
67559;DHT22;54388;53.536;49.300;2023-04-24T13:52:49;37.40;11.10
67559;DHT22;54388;53.536;49.300;2023-04-24T13:55:18;37.40;11.00
67559;DHT22;54388;53.536;49.300;2023-04-24T13:57:50;37.30;11.10
67559;DHT22;54388;53.536;49.300;2023-04-24T14:00:21;37.20;11.20
67559;DHT22;54388;53.536;49.300;2023-04-24T14:02:48;37.20;11.20
67559;DHT22;54388;53.536;49.300;2023-04-24T14:05:20;37.20;12.00
67559;DHT22;54388;53.536;49.300;2023-04-24T14:07:50;37.20;11.30
67559;DHT22;54388;53.536;49.300;2023-04-24T14:10:17;37.20;11.20
67559;DHT22;54388;53.536;49.300;2023-04-24T14:12:46;37.20;11.10
67559;DHT22;54388;53.536;49.300;2023-04-24T14:15:13;37.20;11.00
67559;DHT22;54388;53.536;49.300;2023-04-24T14:17:40;37.30;11.10
67559;DHT22;54388;53.536;49.300;2023-04-24T14:20:07;37.50;11.00
67559;DHT22;54388;53.536;49.300;2023-04-24T14:22:33;37.60;11.10
67559;DHT22;54388;53.536;49.300;2023-04-24T14:25:02;37.60;11.10
67559;DHT22;54388;53.536;49.300;2023-04-24T14:27:29;37.70;11.10
67559;DHT22;54388;53.536;49.300;2023-04-24T14:29:56;37.70;11.00
67559;DHT22;54388;53.536;49.300;2023-04-24T14:32:23;37.80;11.10
67559;DHT22;54388;53.536;49.300;2023-04-24T14:34:50;37.90;11.10
67559;DHT22;54388;53.536;49.300;2023-04-24T14:37:17;38.00;11.00
67559;DHT22;54388;53.536;49.300;2023-04-24T14:39:46;38.00;11.00
67559;DHT22;54388;53.536;49.300;2023-04-24T14:42:12;38.00;11.00
67559;DHT22;54388;53.536;49.300;2023-04-24T14:44:39;38.10;11.10
67559;DHT22;54388;53.536;49.300;2023-04-24T14:47:06;38.00;11.10
67559;DHT22;54388;53.536;49.300;2023-04-24T14:49:33;38.00;11.10
67559;DHT22;54388;53.536;49.300;2023-04-24T14:52:03;38.00;11.20
67559;DHT22;54388;53.536;49.300;2023-04-24T14:54:32;38.00;11.20
67559;DHT22;54388;53.536;49.300;2023-04-24T14:57:02;38.00;11.30
67559;DHT22;54388;53.536;49.300;2023-04-24T14:59:29;37.90;11.40
67559;DHT22;54388;53.536;49.300;2023-04-24T15:01:57;37.80;11.50
67559;DHT22;54388;53.536;49.300;2023-04-24T15:04:25;37.70;11.50
67559;DHT22;54388;53.536;49.300;2023-04-24T15:06:52;37.60;11.60
67559;DHT22;54388;53.536;49.300;2023-04-24T15:09:24;37.50;11.70
67559;DHT22;54388;53.536;49.300;2023-04-24T15:11:53;37.40;11.80
67559;DHT22;54388;53.536;49.300;2023-04-24T15:14:19;37.20;11.90
67559;DHT22;54388;53.536;49.300;2023-04-24T15:16:47;37.10;12.00
67559;DHT22;54388;53.536;49.300;2023-04-24T15:19:13;37.00;12.00
67559;DHT22;54388;53.536;49.300;2023-04-24T15:21:40;36.80;12.10
67559;DHT22;54388;53.536;49.300;2023-04-24T15:24:09;36.60;12.20
67559;DHT22;54388;53.536;49.300;2023-04-24T15:26:36;36.40;12.30
67559;DHT22;54388;53.536;49.300;2023-04-24T15:29:03;36.20;12.40
67559;DHT22;54388;53.536;49.300;2023-04-24T15:31:30;35.90;12.50
67559;DHT22;54388;53.536;49.300;2023-04-24T15:33:59;35.70;12.60
67559;DHT22;54388;53.536;49.300;2023-04-24T15:36:27;35.50;12.80
67559;DHT22;54388;53.536;49.300;2023-04-24T15:38:54;35.30;12.90
67559;DHT22;54388;53.536;49.300;2023-04-24T15:41:21;35.00;13.00